Fisher, Minnesota
Current Conditions -  °F | °C
As of 8:55 PM on Tuesday 21 Oct 2014 (Local Time) from KCKN Reporting Station
Clear Clear  
Wind Chill: 55°   Ceiling: Unl
Heat Index: 55°   Visibility: 10mi
Dew Point: 41°   Wind: 25mph
Humidity: 58%   Direction: 170°S
Pressure: 29.9"   Gusts: 31mph
Location:  47.8°N, 96.8°W
Report Text: KCKN 220155Z AUTO 17022G27KT 10SM CLR 13/05 A2990 RMK AO2
Loading
Personal Weather Stations






























Interactive Weather Map
Tropical Storm Tracking
New forecast layout! Learn more

10-Day Weather Forecast

Advertisements
Track Severe Weather on mobile